createdAt,value
2022-10-24T00:00:32.046Z,17.02
2022-10-24T00:04:40.361Z,17.65
2022-10-24T00:08:43.775Z,20.08
2022-10-24T00:12:47.382Z,19.00
2022-10-24T00:16:50.435Z,20.95
2022-10-24T00:20:53.307Z,22.35
2022-10-24T00:24:56.315Z,22.02
2022-10-24T00:33:09.608Z,23.17
2022-10-24T00:37:12.608Z,24.15
2022-10-24T00:41:22.715Z,21.45
2022-10-24T00:45:38.004Z,24.77
2022-10-24T00:50:04.547Z,22.25
2022-10-24T00:58:13.016Z,18.65
2022-10-24T01:02:16.603Z,20.33
2022-10-24T01:06:44.278Z,19.30
2022-10-24T01:11:18.583Z,19.52
2022-10-24T01:15:28.807Z,17.95
2022-10-24T01:19:38.309Z,18.40
2022-10-24T01:23:50.240Z,18.50
2022-10-24T01:28:07.886Z,21.38
2022-10-24T01:32:26.898Z,23.08
2022-10-24T01:36:44.117Z,21.85
2022-10-24T01:41:21.324Z,22.38
2022-10-24T01:45:36.570Z,24.08
2022-10-24T01:49:43.288Z,24.23
2022-10-24T01:57:49.903Z,25.35
2022-10-24T02:02:29.027Z,23.70
2022-10-24T02:06:42.038Z,23.35
2022-10-24T02:10:51.085Z,24.95
2022-10-24T02:15:05.396Z,26.25
2022-10-24T02:19:08.366Z,24.52
2022-10-24T02:23:31.059Z,27.23
2022-10-24T02:27:43.087Z,27.05
2022-10-24T02:31:58.313Z,25.48
2022-10-24T02:36:03.474Z,26.98
2022-10-24T02:40:08.546Z,26.70
2022-10-24T02:44:15.394Z,24.85
2022-10-24T02:48:23.536Z,24.73
2022-10-24T02:52:27.079Z,22.45
2022-10-24T02:56:30.399Z,24.38
2022-10-24T03:00:33.750Z,26.38
2022-10-24T03:04:38.284Z,26.10
2022-10-24T03:08:41.693Z,26.60
2022-10-24T03:12:45.612Z,24.48
2022-10-24T03:16:48.899Z,26.70
2022-10-24T03:20:52.007Z,26.23
2022-10-24T03:24:55.583Z,27.48
2022-10-24T03:28:58.969Z,25.73
2022-10-24T03:33:01.936Z,26.17
2022-10-24T03:37:05.168Z,26.20
2022-10-24T03:41:08.228Z,27.48
2022-10-24T03:45:11.345Z,26.77
2022-10-24T03:49:14.280Z,25.73
2022-10-24T03:53:17.251Z,25.95
2022-10-24T04:01:24.770Z,25.50
2022-10-24T04:05:27.808Z,25.40
2022-10-24T04:09:30.680Z,24.10
2022-10-24T04:13:34.417Z,24.98
2022-10-24T04:17:37.961Z,26.13
2022-10-24T04:21:44.465Z,24.77
2022-10-24T04:25:55.202Z,24.38
2022-10-24T04:29:58.584Z,24.25
2022-10-24T04:34:17.915Z,25.60
2022-10-24T04:38:22.984Z,25.38
2022-10-24T04:42:27.431Z,21.95
2022-10-24T04:46:31.278Z,23.90
2022-10-24T04:50:34.494Z,23.30
2022-10-24T04:54:38.485Z,25.42
2022-10-24T04:58:44.873Z,24.35
2022-10-24T05:03:03.919Z,24.20
2022-10-24T05:07:13.335Z,25.30
2022-10-24T05:11:48.303Z,26.55
2022-10-24T05:16:10.689Z,22.45
2022-10-24T05:20:15.060Z,23.13
2022-10-24T05:24:21.164Z,25.80
2022-10-24T05:28:51.594Z,25.13
2022-10-24T05:33:02.451Z,25.05
2022-10-24T05:37:10.099Z,23.67
2022-10-24T05:41:15.653Z,25.02
2022-10-24T05:46:09.799Z,25.42
2022-10-24T05:50:37.646Z,23.92
2022-10-24T05:55:22.960Z,21.77
2022-10-24T05:59:35.242Z,22.85
2022-10-24T06:03:59.652Z,20.77
2022-10-24T06:08:15.358Z,23.92
2022-10-24T06:12:21.686Z,24.90
2022-10-24T06:16:35.084Z,23.55
2022-10-24T06:20:42.016Z,25.35
2022-10-24T06:29:57.806Z,26.45
2022-10-24T06:34:37.720Z,27.73
2022-10-24T06:39:03.284Z,28.17
2022-10-24T06:43:13.136Z,28.13
2022-10-24T06:47:41.745Z,29.55
2022-10-24T06:52:13.182Z,29.55
2022-10-24T07:01:48.001Z,33.20
2022-10-24T07:06:36.034Z,34.20
2022-10-24T07:11:16.141Z,34.97
2022-10-24T07:16:02.846Z,34.33
2022-10-24T07:21:00.139Z,36.92
2022-10-24T07:25:20.513Z,38.40
2022-10-24T07:30:32.072Z,35.00
2022-10-24T07:35:01.541Z,39.58
2022-10-24T07:39:25.163Z,39.63
2022-10-24T07:43:39.218Z,40.83
2022-10-24T07:48:02.158Z,44.95
2022-10-24T07:52:16.924Z,43.67
2022-10-24T07:56:38.370Z,40.60
2022-10-24T08:01:54.362Z,39.08
2022-10-24T08:06:12.126Z,37.72
2022-10-24T08:10:33.090Z,23.23
2022-10-24T08:14:48.745Z,18.38
2022-10-24T08:18:58.601Z,19.03
2022-10-24T08:23:15.062Z,19.73
2022-10-24T08:34:06.463Z,23.45
2022-10-24T08:39:02.455Z,24.23
2022-10-24T08:49:15.466Z,25.48
2022-10-24T11:53:34.451Z,10.38
2022-10-24T12:04:14.052Z,9.95
2022-10-24T12:08:40.338Z,12.30
2022-10-24T12:13:31.476Z,10.40
2022-10-24T12:17:59.303Z,12.05
2022-10-24T12:22:05.151Z,12.23
2022-10-24T12:26:27.017Z,14.27
2022-10-24T12:31:16.405Z,14.32
2022-10-24T12:35:38.993Z,23.27
2022-10-24T12:39:47.596Z,18.80
2022-10-24T12:43:51.079Z,12.07
2022-10-24T12:52:19.258Z,14.30
2022-10-24T12:56:23.875Z,15.57
2022-10-24T13:00:30.376Z,17.48
2022-10-24T13:04:58.018Z,11.75
2022-10-24T13:09:46.313Z,13.60
2022-10-24T13:14:01.435Z,11.60
2022-10-24T13:18:55.894Z,14.18
2022-10-24T13:23:06.170Z,13.20
2022-10-24T13:27:13.054Z,13.82
2022-10-24T13:31:19.171Z,13.27
2022-10-24T13:35:25.387Z,12.25
2022-10-24T13:39:40.336Z,11.55
2022-10-24T13:44:02.830Z,14.68
2022-10-24T13:49:01.962Z,11.45
2022-10-24T13:53:30.580Z,11.83
2022-10-24T13:57:40.540Z,18.05
2022-10-24T14:02:07.819Z,11.80
2022-10-24T14:06:16.843Z,11.10
2022-10-24T14:10:26.369Z,12.60
2022-10-24T14:14:37.572Z,27.40
2022-10-24T14:18:42.123Z,25.52
2022-10-24T14:22:48.526Z,31.30
2022-10-24T14:26:56.383Z,25.17
2022-10-24T14:31:20.685Z,27.98
2022-10-24T14:35:23.993Z,16.98
2022-10-24T14:39:27.697Z,13.40
2022-10-24T14:43:42.396Z,12.90
2022-10-24T14:47:52.779Z,14.40
2022-10-24T14:52:04.501Z,11.65
2022-10-24T14:56:29.688Z,12.38
2022-10-24T15:00:39.581Z,12.43
2022-10-24T15:04:47.221Z,12.25
2022-10-24T15:09:13.111Z,11.85
2022-10-24T15:13:47.955Z,11.27
2022-10-24T15:17:47.315Z,10.10
2022-10-24T15:21:55.978Z,10.53
2022-10-24T15:26:18.727Z,9.75
2022-10-24T15:30:23.135Z,11.07
2022-10-24T15:34:30.003Z,11.13
2022-10-24T15:38:37.644Z,11.02
2022-10-24T15:42:43.661Z,11.00
2022-10-24T15:46:52.132Z,12.85
2022-10-24T15:50:55.355Z,11.25
2022-10-24T15:55:02.807Z,10.95
2022-10-24T15:59:09.123Z,11.40
2022-10-24T16:03:17.973Z,10.52
2022-10-24T16:07:23.394Z,12.00
2022-10-24T16:13:14.791Z,10.25
2022-10-24T16:37:52.678Z,11.10
2022-10-24T16:46:58.534Z,10.93
2022-10-24T16:51:48.840Z,10.73
2022-10-24T16:56:11.990Z,11.02
2022-10-24T17:00:17.110Z,10.60
2022-10-24T17:04:22.630Z,10.68
2022-10-24T17:08:28.904Z,10.73
2022-10-24T17:12:33.383Z,10.98
2022-10-24T17:16:45.517Z,11.25
2022-10-24T17:20:48.979Z,10.73
2022-10-24T17:24:52.184Z,11.02
2022-10-24T17:28:57.817Z,9.77
2022-10-24T17:33:02.201Z,9.98
2022-10-24T17:37:19.273Z,10.55
2022-10-24T17:41:31.057Z,11.18
2022-10-24T17:45:39.657Z,10.82
2022-10-24T17:56:17.618Z,10.52
2022-10-24T18:00:38.981Z,10.68
2022-10-24T18:29:03.867Z,11.32
2022-10-24T18:33:57.849Z,10.85
2022-10-24T18:38:09.583Z,11.70
2022-10-24T18:42:53.544Z,11.63
2022-10-24T18:47:24.743Z,11.50
2022-10-24T18:58:57.082Z,12.50
2022-10-24T19:03:15.334Z,11.93
2022-10-24T19:12:28.562Z,13.10
2022-10-24T19:17:27.680Z,14.23
2022-10-24T19:39:41.668Z,13.35
2022-10-24T19:43:50.979Z,13.63
2022-10-24T19:48:03.238Z,14.35
2022-10-24T19:52:09.245Z,15.18
2022-10-24T19:56:32.458Z,14.45
2022-10-24T20:00:59.097Z,15.95
2022-10-24T20:05:52.202Z,13.98
2022-10-24T20:14:30.965Z,15.02
2022-10-24T20:18:51.422Z,15.47
2022-10-24T20:23:01.547Z,13.68
2022-10-24T20:27:12.464Z,14.68
2022-10-24T20:31:46.920Z,14.27
2022-10-24T20:35:53.547Z,13.43
2022-10-24T20:40:14.682Z,18.40
2022-10-24T21:33:24.421Z,13.95
2022-10-24T21:37:43.215Z,16.38
2022-10-24T21:42:15.595Z,18.10
2022-10-24T21:47:16.998Z,18.65
2022-10-24T21:51:43.106Z,15.65
2022-10-24T21:56:35.674Z,15.57
2022-10-24T22:08:11.961Z,14.18
2022-10-24T22:12:40.363Z,16.15
2022-10-24T22:23:17.201Z,13.52
2022-10-24T22:28:13.230Z,15.32
2022-10-24T22:33:11.968Z,15.55
2022-10-24T22:38:53.234Z,15.65
2022-10-24T23:14:00.471Z,13.93
2022-10-24T23:24:03.711Z,14.10
2022-10-24T23:29:41.862Z,14.02
